Tiempo atmosférico en la estación meteorológica de Jumilla, Murcia (505 m.)



Fecha
DESCASC
Temp. máxima en grados centígrados (hora)
DESCASC
Temp. mínima en grados centígrados (hora)
DESCASC
Temp. media en grados centígrados
DESCASC
Racha de viento máxima en m/sg (hora)
DESCASC
Velocidad máxima media en intervalos de 10 minutos(hora)
DESCASC
Precipitaciones diarias en mm
DESCASC
Precipitaciones de 00:00 a 06:00 en mm
DESCASC
Precipitaciones de 06:00 a 12:00 en mm
DESCASC
Precipitaciones de 12:00 a 18:00 en mm
DESCASC
Precipitaciones de 18:00 a 24:00 en mm
DESCASC
25-02-2021 16.1 (15:20) 6.1 (02:20) 11.1 8.61 (14:40) 4.72 (17:10) 0 0 0 0 0
24-02-2021 17.7 (16:30) 3.3 (04:20) 10.5 7.5 (18:50) 4.17 (18:00) 0 0 0 0 0
23-02-2021 14.9 (16:50) 5.8 (08:10) 10.3 8.06 (12:10) 5.56 (11:40) 0 0 0 0 0
22-02-2021 12.5 (14:10) 6.5 (05:30) 9.5 10.83 (15:00) 6.67 (12:10) 0 0 0 0 0
21-02-2021 13.8 (16:30) 6.9 (00:00) 10.4 11.67 (11:10) 6.67 (11:10) 0 0 0 0 0
20-02-2021 18.3 (16:10) -0.4 (00:00) 8.9 6.67 (11:10) 4.17 (11:20) 0 0 0 0 0
19-02-2021 22.1 (15:20) 0.9 (00:00) 11.5 8.61 (14:20) 5 (14:30) 0 0 0 0 0
18-02-2021 22.3 (16:00) -0.5 (-00:0) 10.9 6.94 (16:20) 3.61 (16:30) 0 0 0 0 0
17-02-2021 23.1 (15:50) 0.7 (00:00) 11.9 7.22 (16:30) 4.44 (16:50) 0 0 0 0 0
16-02-2021 18.4 (16:20) 0.2 (00:00) 9.3 5.28 (17:50) 3.89 (17:40) 0 0 0 0 0
15-02-2021 13.4 (16:40) 3.9 (00:00) 8.6 7.5 (17:40) 3.89 (17:40) 0 0 0 0 0
14-02-2021 17.4 (14:40) 2.6 (00:00) 10 7.5 (18:30) 4.72 (18:30) 0 0 0 0 0
13-02-2021 19.2 (16:20) 8.6 (00:00) 13.9 8.89 (17:00) 5 (16:40) 0 0 0 0 0
12-02-2021 18.9 (14:40) 9.8 (00:00) 14.3 15 (12:10) 9.17 (13:20) 0 0 0 0 0
11-02-2021 21 (16:30) 4.6 (00:00) 12.8 8.89 (13:20) 4.72 (11:50) 0 0 0 0 0
10-02-2021 17.8 (15:10) 7.3 (00:00) 12.5 20 (09:40) 11.94 (09:40) 0 0 0 0 0
09-02-2021 15.7 (16:50) 2.7 (00:00) 9.2 14.72 (20:40) 9.72 (20:30) 0 0 0 0 0
08-02-2021 14.9 (15:00) 4.5 (00:00) 9.7 15.56 (16:50) 10 (16:50) 0 0 0 0 0
07-02-2021 13 (16:10) 2.3 (00:00) 7.6 9.72 (12:20) 5.28 (18:10) 0 0 0 0 0
06-02-2021 17.1 (13:40) 4.5 (00:00) 10.8 9.17 (16:30) 5.28 (15:20) 0 0 0 0 0
05-02-2021 16.8 (14:40) 5.8 (00:00) 11.3 8.33 (15:40) 5.28 (15:30) 0 0 0 0 0
04-02-2021 19.7 (15:20) 4.8 (00:00) 12.3 5 (14:10) 3.06 (14:10) 0 0 0 0 0
03-02-2021 18.3 (16:20) 4 (00:00) 11.1 5.83 (01:20) 3.33 (14:40) 0 0 0 0 0
02-02-2021 20.4 (16:00) 5.6 (02:00) 13 8.33 (12:40) 4.72 (12:40) 0 0 0 0 0
01-02-2021 20.6 (15:50) 7.7 (00:00) 14.2 17.78 (12:20) 10.56 (12:50) 0 0 0 0 0
31-01-2021 17 (15:20) 9 (00:00) 13 16.67 (12:50) 10.83 (12:40) 0 0 0 0 0
30-01-2021 17.9 (14:40) 7.3 (00:00) 12.6 18.89 (16:40) 11.39 (16:40) 0 0 0 0 0

Gráficas

Temp. máximas Temp. mínimas Temp. medias Precipitaciones Rachas de viento máximas Velocidades máximas media en intervalos de 10 minutos

Datos horarios

Fecha y hora oficial Temperatura (ºC) Velocidad del viento (km/h) Dirección del viento Racha (km/h) Dirección de racha Precipitación (mm) Presión (hPa) Tendencia (hPa) Humedad (%)
2021-02-28 23:00:00 9.1 15 Este 25 Nordeste 0 -- -- 80
2021-02-28 22:00:00 9.5 8 Este 21 Este 0 -- -- 80
2021-02-28 21:00:00 9.7 13 Este 22 Este 0 -- -- 76
2021-02-28 20:00:00 10.9 19 Este 31 Nordeste 0 -- -- 69
2021-02-28 19:00:00 12 10 Este 21 Este 0 -- -- 67
2021-02-28 18:00:00 12.6 10 Este 23 Este 0 -- -- 63
2021-02-28 17:00:00 13.6 11 Sudeste 24 Sudeste 0 -- -- 56
2021-02-28 16:00:00 13.1 12 Sudeste 24 Sudeste 0 -- -- 59
2021-02-28 15:00:00 12.8 8 Sudeste 22 Sudeste 0 -- -- 60
2021-02-28 14:00:00 12.5 9 Sudeste 24 Este 0 -- -- 59
2021-02-28 13:00:00 12.4 14 Sudeste 27 Sudeste 0 -- -- 61
2021-02-28 12:00:00 12 14 Sudeste 22 Sudeste 0 -- -- 61
2021-02-28 11:00:00 10.7 10 Este 17 Este 0 -- -- 72
2021-02-28 10:00:00 10.3 10 Este 17 Este 0 -- -- 73
2021-02-28 09:00:00 8.5 0 Calma 7 Noroeste 0 -- -- 82
2021-02-28 08:00:00 7.5 2 Noroeste 4 Noroeste 0 -- -- 86
2021-02-28 07:00:00 7.6 0 Calma 8 Sudeste 0 -- -- 84
2021-02-28 06:00:00 7.6 0 Calma 6 Sur 0 -- -- 84
2021-02-28 05:00:00 7.4 3 Sudeste 5 Sudeste 0 -- -- 86
2021-02-28 04:00:00 7.2 3 Oeste 6 Oeste 0 -- -- 88
2021-02-28 03:00:00 7.2 0 Calma 5 Sur 0 -- -- 89
2021-02-28 02:00:00 6.8 2 Norte 6 Oeste 0 -- -- 89
2021-02-28 01:00:00 5.8 2 Oeste 6 Oeste 0 -- -- 91
2021-02-28 00:00:00 4.3 0 Calma 6 Norte 0 -- -- 89
2021-02-27 23:00:00 4.8 3 Noroeste 5 Norte 0 -- -- 88
2021-02-27 22:00:00 6.3 2 Noroeste 10 Sur 0 -- -- 81
2021-02-27 21:00:00 8.6 7 Sudoeste 13 Sudoeste 0 -- -- 78
2021-02-27 20:00:00 9.9 5 Sudoeste 14 Oeste 0 -- -- 73
2021-02-27 19:00:00 11.7 11 Sudoeste 19 Sudoeste 0 -- -- 66
2021-02-27 18:00:00 14.8 12 Sudoeste 19 Sudoeste 0 -- -- 55
2021-02-27 17:00:00 16.3 13 Sudoeste 19 Sudoeste 0 -- -- 49
2021-02-27 16:00:00 16.8 8 Sudoeste 17 Sudoeste 0 -- -- 48
2021-02-27 15:00:00 15.9 6 Sur 15 Sudoeste 0 -- -- 52
2021-02-27 14:00:00 15 8 Sur 14 Sur 0 -- -- 55
2021-02-27 13:00:00 13.3 4 Oeste 13 Sur 0 -- -- 62
2021-02-27 12:00:00 11.6 3 Oeste 10 Oeste 0 -- -- 67
2021-02-27 11:00:00 10.3 3 Norte 10 Este 0 -- -- 71
2021-02-27 10:00:00 7.3 4 Norte 10 Norte 0 -- -- 83
2021-02-27 09:00:00 4.4 5 Norte 10 Norte 0 -- -- 92
2021-02-27 08:00:00 3.1 6 Norte 10 Norte 0 -- -- 92
2021-02-27 07:00:00 4.3 5 Norte 11 Norte 0 -- -- 90
2021-02-27 06:00:00 4.4 5 Norte 10 Norte 0 -- -- 94
2021-02-27 05:00:00 3.6 3 Norte 10 Norte 0 -- -- 97
2021-02-27 04:00:00 2.2 2 Nordeste 5 Norte 0 -- -- 95
2021-02-27 03:00:00 2.9 2 Norte 9 Norte 0 -- -- 94
2021-02-27 02:00:00 3.4 5 Norte 7 Norte 0 -- -- 96
2021-02-27 01:00:00 3.3 3 Norte 6 Norte 0 -- -- 93
2021-02-27 00:00:00 4 2 Noroeste 4 Norte 0 -- -- 91
2021-02-26 23:00:00 5.6 0 Calma 6 Norte 0 -- -- 88
2021-02-26 22:00:00 7.1 2 Este 6 Oeste 0 -- -- 85
2021-02-26 21:00:00 8.5 4 Este 14 Este 0 -- -- 80
2021-02-26 20:00:00 9.9 6 Sudeste 10 Sudeste 0 -- -- 74
2021-02-26 19:00:00 12.4 3 Este 13 Sur 0 -- -- 67
2021-02-26 18:00:00 14.6 8 Sudeste 18 Este 0 -- -- 60
2021-02-26 17:00:00 15.4 7 Este 20 Este 0 -- -- 57
2021-02-26 16:00:00 15.7 10 Este 21 Este 0 -- -- 57
2021-02-26 15:00:00 16.3 9 Este 24 Este 0 -- -- 54
2021-02-26 14:00:00 14.9 6 Sudeste 18 Este 0 -- -- 57
2021-02-26 13:00:00 14.5 7 Sudeste 16 Sudeste 0 -- -- 58
2021-02-26 12:00:00 12.9 6 Este 18 Este 0 -- -- 65
2021-02-26 11:00:00 11.5 5 Este 13 Este 0 -- -- 76
2021-02-26 10:00:00 10.3 7 Este 14 Este 0 -- -- 81
2021-02-26 09:00:00 9.6 5 Este 9 Este 0 -- -- 85
2021-02-26 08:00:00 9 2 Este 10 Nordeste 0 -- -- 86
2021-02-26 07:00:00 8.6 3 Nordeste 6 Nordeste 0 -- -- 86
2021-02-26 06:00:00 9 3 Nordeste 18 Este 0 -- -- 83
2021-02-26 05:00:00 9.3 10 Este 19 Este 0 -- -- 82
2021-02-26 04:00:00 9.5 5 Este 11 Nordeste 0 -- -- 86
2021-02-26 03:00:00 9.6 0 Calma 4 Sudeste 0 -- -- 88
2021-02-26 02:00:00 9.5 0 Calma 3 Noroeste 0 -- -- 86
2021-02-26 01:00:00 9.7 2 Norte 4 Nordeste 0 -- -- 87
2021-02-26 00:00:00 9.1 0 Calma 3 Norte 0 -- -- 88
2021-02-25 23:00:00 10 2 Sur 11 Sudeste 0 -- -- 83
2021-02-25 22:00:00 10.4 4 Sudeste 9 Sudeste 0 -- -- 85
2021-02-25 21:00:00 9.2 2 Norte 10 Este 0 -- -- 87
2021-02-25 20:00:00 10.4 7 Este 12 Este 0 -- -- 82
2021-02-25 19:00:00 12.4 3 Este 16 Sur 0 -- -- 73
2021-02-25 18:00:00 14.3 13 Sur 24 Sudeste 0 -- -- 66
2021-02-25 17:00:00 15.3 15 Sudeste 26 Sudeste 0 -- -- 62
2021-02-25 16:00:00 15.8 12 Sudeste 30 Sudeste 0 -- -- 59
2021-02-25 15:00:00 15.8 10 Sur 31 Sur 0 -- -- 59
2021-02-25 14:00:00 14.9 8 Sur 16 Sudeste 0 -- -- 62
2021-02-25 13:00:00 14.1 10 Sudeste 22 Sudeste 0 -- -- 65
2021-02-25 12:00:00 13.1 15 Sudeste 25 Sudeste 0 -- -- 69
2021-02-25 11:00:00 11.1 10 Sudeste 17 Sudeste 0 -- -- 78
2021-02-25 10:00:00 9.1 8 Sudeste 14 Este 0 -- -- 85
2021-02-25 09:00:00 7.3 3 Este 9 Sudeste 0 -- -- 91
2021-02-25 08:00:00 6.7 4 Sudeste 6 Sudeste 0 -- -- 92
2021-02-25 07:00:00 6.3 2 Este 10 Este 0 -- -- 92
2021-02-25 06:00:00 6.6 4 Este 12 Este 0 -- -- 91
2021-02-25 05:00:00 6.9 3 Sudeste 7 Sudeste 0 -- -- 91
2021-02-25 04:00:00 6.9 0 Calma 4 Este 0 -- -- 91
2021-02-25 03:00:00 6.4 4 Este 6 Este 0 -- -- 92
2021-02-25 02:00:00 6.5 0 Calma 6 Noroeste 0 -- -- 89
2021-02-25 01:00:00 7.9 0 Calma 5 Este 0 -- -- 87
2021-02-25 00:00:00 8.7 2 Sudeste 9 Sudeste 0 -- -- 82
2021-02-24 23:00:00 10 5 Sudeste 9 Sudeste 0 -- -- 80
2021-02-24 22:00:00 10.6 6 Sudeste 10 Sudeste 0 -- -- 80
2021-02-24 21:00:00 11 7 Sudeste 14 Sudeste 0 -- -- 79
2021-02-24 20:00:00 11 6 Sudeste 17 Sur 0 -- -- 77
2021-02-24 19:00:00 12.2 11 Sudeste 27 Sudeste 0 -- -- 71
2021-02-24 18:00:00 14.6 15 Sudeste 23 Sudeste 0 -- -- 63
2021-02-24 17:00:00 17.3 9 Sur 20 Sudeste 0 -- -- 43
2021-02-24 16:00:00 17.2 9 Sudoeste 14 Sudoeste 0 -- -- 50
2021-02-24 15:00:00 16.9 6 Sudoeste 18 Sudoeste 0 -- -- 54
2021-02-24 14:00:00 15.1 11 Sudoeste 19 Oeste 0 -- -- 60
2021-02-24 13:00:00 14.2 7 Sudoeste 18 Oeste 0 -- -- 65
2021-02-24 12:00:00 13.9 6 Sudeste 11 Sudeste 0 -- -- 66
2021-02-24 11:00:00 10.9 0 Calma 11 Este 0 -- -- 83
2021-02-24 10:00:00 9.5 0 Calma 8 Norte 0 -- -- 85
2021-02-24 09:00:00 7.4 2 Noroeste 5 Norte 0 -- -- 91
2021-02-24 08:00:00 6.3 2 Norte 5 Norte 0 -- -- 92
2021-02-24 07:00:00 5.8 0 Calma 4 Norte 0 -- -- 94
2021-02-24 06:00:00 5.1 3 Norte 9 Norte 0 -- -- 95
2021-02-24 05:00:00 3.7 3 Este 8 Este 0 -- -- 95
2021-02-24 04:00:00 3.6 3 Norte 6 Norte 0 -- -- 92
2021-02-24 03:00:00 5.1 4 Noroeste 11 Este 0 -- -- 89
2021-02-24 02:00:00 7 5 Este 17 Sudeste 0 -- -- 87
2021-02-24 01:00:00 7.6 2 Nordeste 13 Nordeste 0 -- -- 83
2021-02-24 00:00:00 8.5 7 Sudeste 13 Este 0 -- -- 81
2021-02-23 23:00:00 8.3 0 Calma 9 Sudeste 0 -- -- 83
2021-02-23 22:00:00 8.9 6 Sudeste 11 Sudeste 0 -- -- 80
2021-02-23 21:00:00 9.8 3 Este 17 Este 0 -- -- 76
2021-02-23 20:00:00 11 5 Este 26 Este 0 -- -- 69
2021-02-23 19:00:00 12.6 15 Este 25 Este 0 -- -- 64
2021-02-23 18:00:00 13.9 11 Este 20 Este 0 -- -- 59
2021-02-23 17:00:00 14.9 8 Sudeste 22 Este 0 -- -- 54
2021-02-23 16:00:00 14.5 13 Este 20 Este 0 -- -- 55
2021-02-23 15:00:00 14.3 8 Este 20 Este 0 -- -- 55
2021-02-23 14:00:00 14.2 12 Este 23 Este 0 -- -- 56
2021-02-23 13:00:00 13.3 14 Este 29 Este 0 -- -- 61
2021-02-23 12:00:00 13.3 15 Este 28 Este 0 -- -- 64
2021-02-23 11:00:00 12.1 14 Este 24 Este 0 -- -- 69
2021-02-23 10:00:00 9.7 3 Sudoeste 11 Este 0 -- -- 82
2021-02-23 09:00:00 7.7 0 Calma 4 Norte 0 -- -- 87
2021-02-23 08:00:00 6.1 0 Calma 4 Sur 0 -- -- 86
2021-02-23 07:00:00 5.9 0 Calma 7 Sudeste 0 -- -- 87
2021-02-23 06:00:00 6.4 3 Noroeste 7 Nordeste 0 -- -- 82
2021-02-23 05:00:00 6.9 4 Norte 8 Nordeste 0 -- -- 82
2021-02-23 04:00:00 6.7 3 Este 8 Norte 0 -- -- 80
2021-02-23 03:00:00 6.8 3 Norte 14 Norte 0 -- -- 80
2021-02-23 02:00:00 7 7 Norte 11 Norte 0 -- -- 79
2021-02-23 01:00:00 6.8 4 Norte 6 Norte 0 -- -- 79
2021-02-23 00:00:00 8.6 0 Calma 8 Nordeste 0 -- -- 71
2021-02-22 23:00:00 8.5 0 Calma 4 Oeste 0 -- -- 70
2021-02-22 22:00:00 9.2 0 Calma 13 Noroeste 0 -- -- 66
2021-02-22 21:00:00 9.6 3 Noroeste 15 Noroeste 0 -- -- 64
2021-02-22 20:00:00 9.8 4 Noroeste 20 Noroeste 0 -- -- 62
2021-02-22 19:00:00 10.4 9 Norte 21 Norte 0 -- -- 59
2021-02-22 18:00:00 11.4 13 Noroeste 33 Noroeste 0 -- -- 57
2021-02-22 17:00:00 11.5 13 Noroeste 31 Noroeste 0 -- -- 57
2021-02-22 16:00:00 10.8 15 Noroeste 33 Noroeste 0 -- -- 58
2021-02-22 15:00:00 11.1 19 Noroeste 39 Noroeste 0 -- -- 55
2021-02-22 14:00:00 12.4 19 Noroeste 37 Noroeste 0 -- -- 53
2021-02-22 13:00:00 11.4 22 Noroeste 36 Noroeste 0 -- -- 55
2021-02-22 12:00:00 10.4 18 Noroeste 36 Noroeste 0 -- -- 57
2021-02-22 11:00:00 11.2 17 Noroeste 27 Noroeste 0 -- -- 56
2021-02-22 10:00:00 9.5 16 Oeste 26 Noroeste 0 -- -- 61
2021-02-22 09:00:00 8.9 9 Noroeste 18 Oeste 0 -- -- 66
2021-02-22 08:00:00 7.9 9 Oeste 14 Oeste 0 -- -- 69
2021-02-22 07:00:00 7.7 7 Noroeste 13 Noroeste 0 -- -- 71
2021-02-22 06:00:00 6.7 4 Noroeste 7 Noroeste 0 -- -- 81
2021-02-22 05:00:00 6.6 6 Noroeste 10 Noroeste 0 -- -- 82
2021-02-22 04:00:00 8.4 4 Noroeste 13 Oeste 0 -- -- 73
2021-02-22 03:00:00 8.7 6 Oeste 12 Oeste 0 -- -- 73
2021-02-22 02:00:00 8.8 5 Noroeste 16 Oeste 0 -- -- 77
2021-02-22 01:00:00 8.5 4 Oeste 14 Noroeste 0 -- -- 82
2021-02-22 00:00:00 9.2 10 Noroeste 15 Noroeste 0 -- -- 82
2021-02-21 23:00:00 9.4 4 Nordeste 22 Noroeste 0 -- -- 84
2021-02-21 22:00:00 10.4 10 Oeste 28 Oeste 0 -- -- 84
2021-02-21 21:00:00 11.7 5 Sudeste 12 Sudeste 0 -- -- 79
2021-02-21 20:00:00 12.2 5 Sudeste 8 Sudeste 0 -- -- 78
2021-02-21 19:00:00 12.9 7 Sudeste 16 Nordeste 0 -- -- 76
2021-02-21 18:00:00 13.3 10 Este 22 Este 0 -- -- 74
2021-02-21 17:00:00 13.6 17 Este 29 Este 0 -- -- 73
2021-02-21 16:00:00 13.5 15 Este 25 Este 0 -- -- 72
2021-02-21 15:00:00 13.5 8 Este 27 Nordeste 0 -- -- 73
2021-02-21 14:00:00 13.3 13 Este 37 Este 0 -- -- 72
2021-02-21 13:00:00 12.9 18 Este 42 Este 0 -- -- 75
2021-02-21 12:00:00 11.9 23 Este 42 Este 0 -- -- 79
2021-02-21 11:00:00 11.1 19 Este 37 Este 0 -- -- 82
2021-02-21 10:00:00 10.2 24 Este 38 Este 0 -- -- 84
2021-02-21 09:00:00 10 12 Este 27 Este 0 -- -- 85
2021-02-21 08:00:00 9.6 9 Este 32 Este 0 -- -- 86
2021-02-21 07:00:00 9.6 12 Este 28 Este 0 -- -- 87
2021-02-21 06:00:00 9.5 16 Este 32 Este 0 -- -- 88
2021-02-21 05:00:00 8.3 4 Este 16 Este 0 -- -- 91
2021-02-21 04:00:00 7.3 0 Calma 10 Sudeste 0 -- -- 89
2021-02-21 03:00:00 7.1 2 Este 5 Sudeste 0 -- -- 91
2021-02-21 02:00:00 7.5 2 Oeste 10 Noroeste 0 -- -- 89
2021-02-21 01:00:00 8.3 2 Nordeste 13 Sudeste 0 -- -- 88
2021-02-21 00:00:00 8.6 9 Sudeste 16 Sudeste 0 -- -- 88
2021-02-20 23:00:00 9 9 Sudeste 17 Sur 0 -- -- 88
2021-02-20 22:00:00 9.3 8 Sur 16 Sudeste 0 -- -- 88
2021-02-20 21:00:00 9.7 8 Sur 14 Sur 0 -- -- 85
2021-02-20 20:00:00 11.2 3 Sudeste 10 Sudeste 0 -- -- 76
2021-02-20 19:00:00 13.5 2 Nordeste 21 Sudeste 0 -- -- 63
2021-02-20 18:00:00 16.2 4 Sudoeste 14 Sudoeste 0 -- -- 58
2021-02-20 17:00:00 17.9 8 Sudoeste 17 Oeste 0 -- -- 53
2021-02-20 16:00:00 18.1 10 Sudoeste 20 Sudoeste 0 -- -- 51
2021-02-20 15:00:00 17.8 11 Sudoeste 22 Sudoeste 0 -- -- 52
2021-02-20 14:00:00 17.2 10 Sudoeste 18 Sudoeste 0 -- -- 53
2021-02-20 13:00:00 14.8 12 Sudoeste 17 Sudoeste 0 -- -- 61
2021-02-20 12:00:00 11.3 9 Sudoeste 24 Sudoeste 0 -- -- 71
2021-02-20 11:00:00 8.3 13 Sudoeste 22 Sudoeste 0 -- -- 82
2021-02-20 10:00:00 7.8 3 Sudoeste 6 Oeste 0 -- -- 65
2021-02-20 09:00:00 3 0 Calma 5 Norte 0 -- -- 81
2021-02-20 08:00:00 -0.4 0 Calma 4 Norte 0 -- -- 88
2021-02-20 07:00:00 0.1 2 Nordeste 5 Norte 0 -- -- 86
2021-02-20 06:00:00 0.5 3 Norte 4 Norte 0 -- -- 84
2021-02-20 05:00:00 1.6 2 Nordeste 8 Norte 0 -- -- 80
2021-02-20 04:00:00 2.5 4 Norte 8 Norte 0 -- -- 79
2021-02-20 03:00:00 3.1 0 Calma 10 Noroeste 0 -- -- 75
2021-02-20 02:00:00 4 3 Norte 10 Norte 0 -- -- 74
2021-02-20 01:00:00 4.7 3 Norte 6 Norte 0 -- -- 74
2021-02-20 00:00:00 6.4 6 Norte 11 Norte 0 -- -- 68
2021-02-19 23:00:00 7.2 5 Norte 9 Noroeste 0 -- -- 70
2021-02-19 22:00:00 7.7 3 Norte 8 Noroeste 0 -- -- 69
2021-02-19 21:00:00 9.4 2 Noroeste 6 Este 0 -- -- 62
2021-02-19 20:00:00 13.2 3 Este 7 Este 0 -- -- 54
2021-02-19 19:00:00 16.7 4 Sudoeste 9 Sudoeste 0 -- -- 42
2021-02-19 18:00:00 19.9 6 Sur 23 Sur 0 -- -- 32
2021-02-19 17:00:00 21.4 14 Sudoeste 25 Sur 0 -- -- 26
2021-02-19 16:00:00 21.7 15 Sudoeste 28 Sur 0 -- -- 25
2021-02-19 15:00:00 22 14 Sudoeste 31 Sudoeste 0 -- -- 26
2021-02-19 14:00:00 21.3 10 Sudoeste 23 Sudoeste 0 -- -- 30
2021-02-19 13:00:00 20.1 6 Sudoeste 13 Oeste 0 -- -- 36
2021-02-19 12:00:00 17.3 0 Calma 6 Este 0 -- -- 41
2021-02-19 11:00:00 13.4 3 Este 7 Este 0 -- -- 48
2021-02-19 10:00:00 9.4 2 Este 6 Este 0 -- -- 58
2021-02-19 09:00:00 4.4 0 Calma 4 Norte 0 -- -- 79
2021-02-19 08:00:00 1 0 Calma 4 Norte 0 -- -- 85
2021-02-19 07:00:00 1.4 2 Norte 4 Norte 0 -- -- 82
2021-02-19 06:00:00 2.2 3 Norte 8 Norte 0 -- -- 78
2021-02-19 05:00:00 3 3 Norte 7 Norte 0 -- -- 75
2021-02-19 04:00:00 2.9 3 Norte 5 Norte 0 -- -- 74
2021-02-19 03:00:00 3.4 3 Norte 7 Norte 0 -- -- 74
2021-02-19 02:00:00 4.2 3 Norte 7 Norte 0 -- -- 69
2021-02-19 01:00:00 4.8 0 Calma 6 Noroeste 0 -- -- 69
2021-02-19 00:00:00 6.5 2 Norte 9 Norte 0 -- -- 62
2021-02-18 23:00:00 6.7 5 Norte 6 Noroeste 0 -- -- 62
2021-02-18 22:00:00 8.1 3 Norte 8 Oeste 0 -- -- 58
2021-02-18 21:00:00 10.4 4 Noroeste 9 Noroeste 0 -- -- 51
2021-02-18 20:00:00 14 3 Sudoeste 8 Noroeste 0 -- -- 44
2021-02-18 19:00:00 17.5 5 Norte 15 Norte 0 -- -- 37
2021-02-18 18:00:00 20.2 7 Norte 21 Norte 0 -- -- 34
2021-02-18 17:00:00 21.6 9 Norte 25 Norte 0 -- -- 29
2021-02-18 16:00:00 22.3 8 Sudoeste 15 Sudoeste 0 -- -- 31
2021-02-18 15:00:00 21.1 9 Sudoeste 14 Sudoeste 0 -- -- 32
2021-02-18 14:00:00 19.9 7 Sudoeste 16 Sudoeste 0 -- -- 33
2021-02-18 13:00:00 18.4 8 Sudoeste 15 Sudoeste 0 -- -- 35
2021-02-18 12:00:00 16 3 Sur 8 Oeste 0 -- -- 49
2021-02-18 11:00:00 12.1 3 Sur 5 Sur 0 -- -- 63
2021-02-18 10:00:00 6.5 0 Calma 4 Este 0 -- -- 78
2021-02-18 09:00:00 2.7 2 Este 6 Norte 0 -- -- 92
2021-02-18 08:00:00 0 4 Norte 5 Norte 0 -- -- 94
2021-02-18 07:00:00 -0.4 0 Calma 6 Norte 0 -- -- 91
2021-02-18 06:00:00 0 2 Nordeste 3 Norte 0 -- -- 89
2021-02-18 05:00:00 1 2 Norte 6 Norte 0 -- -- 87
2021-02-18 04:00:00 1.9 2 Nordeste 7 Norte 0 -- -- 84
2021-02-18 03:00:00 2.4 3 Norte 7 Norte 0 -- -- 85
2021-02-18 02:00:00 3 2 Norte 7 Noroeste 0 -- -- 82
2021-02-18 01:00:00 4.2 4 Norte 8 Norte 0 -- -- 80
2021-02-18 00:00:00 5.1 5 Norte 6 Norte 0 -- -- 77
2021-02-17 23:00:00 6.9 4 Norte 10 Norte 0 -- -- 73
2021-02-17 22:00:00 7.9 5 Norte 8 Norte 0 -- -- 72
2021-02-17 21:00:00 9 3 Norte 8 Noroeste 0 -- -- 66
2021-02-17 20:00:00 12.3 3 Noroeste 8 Noroeste 0 -- -- 57
2021-02-17 19:00:00 16.1 2 Norte 8 Este 0 -- -- 48
2021-02-17 18:00:00 18.9 8 Sudeste 21 Sudeste 0 -- -- 42
2021-02-17 17:00:00 21.2 13 Sudeste 26 Sudeste 0 -- -- 34
2021-02-17 16:00:00 22.8 11 Sudeste 24 Sudeste 0 -- -- 29
2021-02-17 15:00:00 22.4 10 Oeste 19 Sudoeste 0 -- -- 33
2021-02-17 14:00:00 21.4 13 Sudoeste 19 Sudoeste 0 -- -- 37
2021-02-17 13:00:00 20 4 Sudoeste 8 Sudoeste 0 -- -- 44
2021-02-17 12:00:00 16.3 2 Sudeste 7 Este 0 -- -- 51
2021-02-17 11:00:00 11.9 3 Este 6 Este 0 -- -- 68
2021-02-17 10:00:00 7.7 3 Este 4 Este 0 -- -- 80
2021-02-17 09:00:00 3.2 0 Calma 4 Este 0 -- -- 98
2021-02-17 08:00:00 0.8 0 Calma 5 Norte 0 -- -- 96
2021-02-17 07:00:00 0.8 0 Calma 3 Noroeste 0 -- -- 95
2021-02-17 06:00:00 1.6 0 Calma 4 Nordeste 0 -- -- 94
2021-02-17 05:00:00 2 2 Norte 5 Norte 0 -- -- 94
2021-02-17 04:00:00 2.3 0 Calma 5 Norte 0 -- -- 93
2021-02-17 03:00:00 2.8 0 Calma 9 Norte 0 -- -- 90
2021-02-17 02:00:00 3.3 3 Norte 6 Norte 0 -- -- 91
2021-02-17 01:00:00 4 0 Calma 5 Norte 0 -- -- 86
2021-02-17 00:00:00 5.7 3 Norte 11 Norte 0 -- -- 83
2021-02-16 23:00:00 6.2 5 Norte 8 Norte 0 -- -- 84
2021-02-16 22:00:00 6.9 5 Norte 7 Norte 0 -- -- 81
2021-02-16 21:00:00 8.5 5 Norte 9 Norte 0 -- -- 75
2021-02-16 20:00:00 10.9 5 Norte 11 Sudoeste 0 -- -- 66
2021-02-16 19:00:00 14 9 Sudoeste 17 Sudoeste 0 -- -- 57
2021-02-16 18:00:00 17.2 10 Sudoeste 19 Sudoeste 0 -- -- 50
2021-02-16 17:00:00 18.3 12 Sudoeste 18 Sudoeste 0 -- -- 47
2021-02-16 16:00:00 18.1 11 Sudoeste 18 Sudoeste 0 -- -- 47
2021-02-16 15:00:00 16.8 5 Oeste 10 Oeste 0 -- -- 51
2021-02-16 14:00:00 14.9 4 Sudoeste 12 Sudoeste 0 -- -- 56
2021-02-16 13:00:00 12.7 6 Sudoeste 15 Sudoeste 0 -- -- 63
2021-02-16 12:00:00 11.3 6 Sudoeste 13 Sudoeste 0 -- -- 70
2021-02-16 11:00:00 9.2 6 Sudoeste 14 Sudoeste 0 -- -- 78
2021-02-16 10:00:00 6.2 0 Calma 2 Noroeste 0 -- -- 96
2021-02-16 09:00:00 3.6 0 Calma 3 Nordeste 0 -- -- 98
2021-02-16 08:00:00 2.6 0 Calma 4 Sudeste 0 -- -- 98
2021-02-16 07:00:00 1.3 0 Calma 4 Sur 0 -- -- 98
2021-02-16 06:00:00 0.2 0 Calma 5 Norte 0 -- -- 97
2021-02-16 05:00:00 0.3 0 Calma 8 Norte 0 -- -- 96
2021-02-16 04:00:00 1 3 Norte 6 Noroeste 0 -- -- 96
2021-02-16 03:00:00 1.2 4 Norte 6 Noroeste 0 -- -- 95
2021-02-16 02:00:00 1.7 2 Noroeste 6 Noroeste 0 -- -- 94
2021-02-16 01:00:00 2.5 3 Noroeste 6 Noroeste 0 -- -- 93
2021-02-16 00:00:00 3.9 5 Noroeste 8 Este 0 -- -- 89
2021-02-15 23:00:00 6.8 2 Este 11 Sudeste 0 -- -- 84
2021-02-15 22:00:00 7.6 5 Este 14 Sudeste 0 -- -- 84
2021-02-15 21:00:00 8.4 3 Sudeste 13 Nordeste 0 -- -- 82
2021-02-15 20:00:00 9.3 6 Sur 24 Sudeste 0 -- -- 78
2021-02-15 19:00:00 10.3 8 Sudeste 24 Sudeste 0 -- -- 74
2021-02-15 18:00:00 11.7 12 Sudeste 27 Sudeste 0 -- -- 67
2021-02-15 17:00:00 13 12 Sur 23 Sur 0 -- -- 59
2021-02-15 16:00:00 12.6 13 Sur 23 Sudeste 0 -- -- 67
2021-02-15 15:00:00 12.6 13 Sur 23 Sur 0 -- -- 62
2021-02-15 14:00:00 12.4 10 Sur 20 Sur 0 -- -- 66
2021-02-15 13:00:00 11.8 9 Sur 20 Sur 0 -- -- 70
2021-02-15 12:00:00 11.9 8 Sur 16 Sur 0 -- -- 71
2021-02-15 11:00:00 10.5 5 Este 11 Sudeste 0 -- -- 85
2021-02-15 10:00:00 9.4 0 Calma 5 Este 0 -- -- 93
2021-02-15 09:00:00 9.1 2 Este 3 Este 0 -- -- 92
2021-02-15 08:00:00 9 0 Calma 4 Norte 0 -- -- 91
2021-02-15 07:00:00 9.1 3 Sudeste 10 Sudeste 0 -- -- 91
2021-02-15 06:00:00 9.4 2 Este 4 Este 0 -- -- 89
2021-02-15 05:00:00 9.6 0 Calma 4 Noroeste 0 -- -- 88
2021-02-15 04:00:00 9.8 3 Sudeste 4 Sudeste 0 -- -- 88
2021-02-15 03:00:00 10 2 Sur 6 Noroeste 0 -- -- 86
2021-02-15 02:00:00 10.1 2 Norte 9 Este 0 -- -- 84
2021-02-15 01:00:00 9.9 2 Nordeste 5 Este 0 -- -- 86
2021-02-15 00:00:00 9.6 3 Sur 8 Sudeste 0 -- -- 86
2021-02-14 23:00:00 9.8 3 Este 6 Este 0 -- -- 86
2021-02-14 22:00:00 10.1 4 Este 19 Sudeste 0 -- -- 83
2021-02-14 21:00:00 10.2 12 Sudeste 21 Sudeste 0 -- -- 81
2021-02-14 20:00:00 10.7 13 Sudeste 24 Sudeste 0 -- -- 78
2021-02-14 19:00:00 11.7 15 Sudeste 27 Sur 0 -- -- 69
2021-02-14 18:00:00 13.7 14 Sudeste 26 Sudeste 0 -- -- 59
2021-02-14 17:00:00 15.3 15 Sur 25 Sudeste 0 -- -- 53
2021-02-14 16:00:00 15.9 15 Sudeste 26 Sudeste 0 -- -- 52
2021-02-14 15:00:00 15.7 12 Sudeste 21 Sudeste 0 -- -- 50
2021-02-14 14:00:00 16.6 10 Sudeste 26 Sudeste 0 -- -- 47
2021-02-14 13:00:00 16.5 12 Sudeste 21 Sudeste 0 -- -- 46
2021-02-14 12:00:00 14.6 6 Este 13 Este 0 -- -- 52
2021-02-14 11:00:00 12.5 4 Sudeste 9 Sudeste 0 -- -- 56
2021-02-14 10:00:00 9.5 5 Este 8 Sudeste 0 -- -- 62
2021-02-14 09:00:00 4.9 0 Calma 6 Norte 0 -- -- 80
2021-02-14 08:00:00 3 3 Norte 6 Nordeste 0 -- -- 81
2021-02-14 07:00:00 3.3 5 Norte 9 Norte 0 -- -- 82
2021-02-14 06:00:00 3.7 3 Nordeste 7 Nordeste 0 -- -- 81
2021-02-14 05:00:00 4 2 Nordeste 6 Norte 0 -- -- 79
2021-02-14 04:00:00 6.2 0 Calma 16 Norte 0 -- -- 71
2021-02-14 03:00:00 7.2 9 Noroeste 15 Norte 0 -- -- 69
2021-02-14 02:00:00 8 2 Norte 15 Norte 0 -- -- 67
2021-02-14 01:00:00 9.6 0 Calma 14 Norte 0 -- -- 61
2021-02-14 00:00:00 8.8 2 Sudeste 12 Norte 0 -- -- 62
2021-02-13 23:00:00 10.2 8 Norte 13 Noroeste 0 -- -- 57
2021-02-13 22:00:00 9.2 0 Calma 10 Oeste 0 -- -- 61
2021-02-13 21:00:00 12.2 0 Calma 16 Norte 0 -- -- 51
2021-02-13 20:00:00 14.2 9 Norte 19 Noroeste 0 -- -- 44
2021-02-13 19:00:00 15.5 9 Norte 22 Norte 0 -- -- 39
2021-02-13 18:00:00 17.5 10 Norte 27 Norte 0 -- -- 34
2021-02-13 17:00:00 18.8 16 Norte 32 Norte 0 -- -- 25
2021-02-13 16:00:00 19 15 Norte 29 Noroeste 0 -- -- 32
2021-02-13 15:00:00 18.5 14 Noroeste 26 Noroeste 0 -- -- 37
2021-02-13 14:00:00 17.3 12 Norte 22 Noroeste 0 -- -- 43
2021-02-13 13:00:00 15.5 13 Norte 28 Noroeste 0 -- -- 49
2021-02-13 08:00:00 -- -- -- -- -- -- -- -- --
2021-02-13 07:00:00 -- -- -- -- -- -- -- -- --
2021-02-13 06:00:00 -- -- -- -- -- -- -- -- --
2021-02-13 05:00:00 10.1 9 Norte 21 Noroeste 0 -- -- 66
2021-02-13 04:00:00 9.4 6 Noroeste 15 Noroeste 0 -- -- 67
2021-02-13 03:00:00 9.5 5 Noroeste 13 Noroeste 0 -- -- 68
2021-02-13 02:00:00 9.6 3 Noroeste 13 Oeste 0 -- -- 66
2021-02-13 01:00:00 10.1 6 Oeste 20 Noroeste 0 -- -- 65
2021-02-13 00:00:00 10.9 6 Noroeste 20 Norte 0 -- -- 62
2021-02-12 23:00:00 11.7 11 Noroeste 21 Noroeste 0 -- -- 60
2021-02-12 22:00:00 12.2 8 Noroeste 25 Noroeste 0 -- -- 59
2021-02-12 21:00:00 13.5 14 Noroeste 30 Noroeste 0 -- -- 54
2021-02-12 20:00:00 14.2 16 Noroeste 34 Noroeste 0 -- -- 50
2021-02-12 19:00:00 15.1 20 Noroeste 41 Noroeste 0 -- -- 45
2021-02-12 18:00:00 16.3 23 Norte 44 Norte 0 -- -- 42
2021-02-12 17:00:00 18.1 24 Noroeste 49 Noroeste 0 -- -- 41
2021-02-12 16:00:00 17.5 27 Noroeste 46 Noroeste 0 -- -- 39
2021-02-12 15:00:00 17.5 30 Noroeste 47 Noroeste 0 -- -- 38
2021-02-12 14:00:00 18.5 27 Noroeste 53 Noroeste 0 -- -- 35
2021-02-12 13:00:00 18.4 26 Noroeste 54 Noroeste 0 -- -- 42
2021-02-12 12:00:00 16.7 26 Noroeste 45 Noroeste 0 -- -- 50
2021-02-12 11:00:00 16.9 18 Noroeste 33 Noroeste 0 -- -- 58
2021-02-12 10:00:00 13 2 Noroeste 7 Norte 0 -- -- 79
2021-02-12 09:00:00 10.6 3 Noroeste 8 Norte 0 -- -- 88
2021-02-12 08:00:00 9.8 3 Norte 8 Noroeste 0 -- -- 89
2021-02-12 07:00:00 10.5 0 Calma 8 Norte 0 -- -- 87
2021-02-12 06:00:00 10.7 3 Norte 9 Norte 0 -- -- 86
2021-02-12 05:00:00 10.8 6 Norte 10 Norte 0 -- -- 85
2021-02-12 04:00:00 10.3 5 Norte 10 Norte 0 -- -- 87
2021-02-12 03:00:00 10.2 0 Calma 5 Norte 0 -- -- 86
2021-02-12 02:00:00 10.6 0 Calma 6 Noroeste 0 -- -- 84
2021-02-12 01:00:00 11.6 0 Calma 7 Norte 0 -- -- 81
2021-02-12 00:00:00 12.4 4 Norte 6 Norte 0 -- -- 79
2021-02-11 23:00:00 12.9 5 Norte 8 Norte 0 -- -- 76
2021-02-11 22:00:00 13.5 4 Norte 9 Norte 0 -- -- 75
2021-02-11 21:00:00 14.4 4 Norte 9 Norte 0 -- -- 72
2021-02-11 20:00:00 15 6 Norte 13 Norte 0 -- -- 70
2021-02-11 19:00:00 16.4 6 Norte 19 Norte 0 -- -- 65
2021-02-11 18:00:00 18.8 10 Norte 19 Norte 0 -- -- 56
2021-02-11 17:00:00 20.1 7 Norte 17 Noroeste 0 -- -- 48
2021-02-11 16:00:00 20.6 10 Norte 19 Norte 0 -- -- 47
2021-02-11 15:00:00 20.4 7 Oeste 20 Oeste 0 -- -- 50
2021-02-11 14:00:00 19.5 12 Sudoeste 32 Sudoeste 0 -- -- 56
2021-02-11 13:00:00 19.1 9 Oeste 26 Oeste 0 -- -- 55
2021-02-11 12:00:00 18.3 13 Noroeste 28 Oeste 0 -- -- 57
2021-02-11 11:00:00 17.1 3 Norte 9 Sur 0 -- -- 63
2021-02-11 10:00:00 13.5 3 Sur 7 Sur 0 -- -- 73
2021-02-11 09:00:00 7.7 0 Calma 5 Noroeste 0 -- -- 91
2021-02-11 08:00:00 5.7 4 Norte 7 Norte 0 -- -- 92
2021-02-11 07:00:00 5.4 4 Nordeste 8 Noroeste 0 -- -- 91
2021-02-11 06:00:00 4.7 4 Noroeste 8 Noroeste 0 -- -- 86
2021-02-11 05:00:00 5.1 2 Norte 5 Norte 0 -- -- 81
2021-02-11 04:00:00 6.1 3 Sur 5 Sudeste 0 -- -- 79
2021-02-11 03:00:00 7.4 0 Calma 8 Norte 0 -- -- 74
2021-02-11 02:00:00 7.5 2 Noroeste 9 Nordeste 0 -- -- 73
2021-02-11 01:00:00 7.4 3 Norte 8 Nordeste 0 -- -- 71
2021-02-11 00:00:00 7.4 4 Norte 9 Noroeste 0 -- -- 70
2021-02-10 23:00:00 8.5 8 Noroeste 13 Noroeste 0 -- -- 65
2021-02-10 22:00:00 8 9 Noroeste 12 Oeste 0 -- -- 65
2021-02-10 21:00:00 11.5 6 Oeste 15 Oeste 0 -- -- 55
2021-02-10 20:00:00 13.1 8 Noroeste 27 Noroeste 0 -- -- 51
2021-02-10 19:00:00 14.2 13 Noroeste 28 Noroeste 0 -- -- 48
2021-02-10 18:00:00 16.4 15 Noroeste 41 Noroeste 0 -- -- 41
2021-02-10 17:00:00 17.4 15 Norte 48 Norte 0 -- -- 37
2021-02-10 16:00:00 17.7 21 Noroeste 51 Noroeste 0 -- -- 36
2021-02-10 15:00:00 17.4 32 Noroeste 60 Noroeste 0 -- -- 36
2021-02-10 14:00:00 17.4 31 Noroeste 59 Noroeste 0 -- -- 36
2021-02-10 13:00:00 16.6 27 Noroeste 67 Noroeste 0 -- -- 41
2021-02-10 12:00:00 14.8 27 Noroeste 58 Noroeste 0 -- -- 55
2021-02-10 11:00:00 13.2 32 Noroeste 70 Noroeste 0 -- -- 63
2021-02-10 10:00:00 12.9 42 Noroeste 72 Oeste 0 -- -- 57
2021-02-10 09:00:00 12.5 35 Noroeste 63 Oeste 0 -- -- 59
2021-02-10 08:00:00 11.7 22 Oeste 40 Oeste 0 -- -- 61
2021-02-10 07:00:00 11.2 17 Oeste 35 Oeste 0 -- -- 59
2021-02-10 06:00:00 11.5 21 Oeste 50 Oeste 0 -- -- 53
2021-02-10 05:00:00 11.1 19 Oeste 39 Oeste 0 -- -- 55
2021-02-10 04:00:00 11.6 26 Oeste 43 Oeste 0 -- -- 54
2021-02-10 03:00:00 11.3 14 Oeste 25 Oeste 0 -- -- 72
2021-02-10 02:00:00 11.4 13 Oeste 36 Oeste 0 -- -- 72
2021-02-10 01:00:00 11.9 21 Oeste 40 Oeste 0 -- -- 69
2021-02-10 00:00:00 11.6 19 Oeste 38 Oeste 0 -- -- 71
2021-02-09 23:00:00 12.1 14 Oeste 25 Oeste 0 -- -- 69
2021-02-09 22:00:00 13.5 12 Oeste 38 Oeste 0 -- -- 63
2021-02-09 21:00:00 14.3 28 Oeste 53 Oeste 0 -- -- 59
2021-02-09 20:00:00 14.3 12 Oeste 31 Oeste 0 -- -- 56
2021-02-09 19:00:00 15.2 21 Oeste 38 Oeste 0 -- -- 52
2021-02-09 18:00:00 14.1 12 Oeste 27 Sudoeste 0 -- -- 53
2021-02-09 17:00:00 15.5 15 Sudoeste 25 Sudoeste 0 -- -- 51
2021-02-09 16:00:00 14.3 9 Sudoeste 17 Sudoeste 0 -- -- 52
2021-02-09 15:00:00 14.1 7 Oeste 17 Sudoeste 0 -- -- 54
2021-02-09 14:00:00 11.4 6 Sudoeste 12 Sudoeste 0 -- -- 65
2021-02-09 13:00:00 10.2 6 Oeste 11 Oeste 0 -- -- 67
2021-02-09 12:00:00 8.6 4 Oeste 9 Sudoeste 0 -- -- 70
2021-02-09 11:00:00 7.4 3 Este 8 Sudoeste 0 -- -- 77
2021-02-09 10:00:00 5.1 3 Sudeste 5 Sudeste 0 -- -- 87
2021-02-09 09:00:00 3.4 0 Calma 8 Noroeste 0 -- -- 89
2021-02-09 08:00:00 2.7 2 Noroeste 6 Este 0 -- -- 87
2021-02-09 07:00:00 3.7 4 Noroeste 9 Noroeste 0 -- -- 84
2021-02-09 06:00:00 4.5 6 Este 10 Sur 0 -- -- 82
2021-02-09 05:00:00 4.2 2 Noroeste 8 Oeste 0 -- -- 80
2021-02-09 04:00:00 6.2 2 Norte 13 Norte 0 -- -- 74
2021-02-09 03:00:00 8 7 Noroeste 15 Noroeste 0 -- -- 69
2021-02-09 02:00:00 9.1 4 Sur 23 Oeste 0 -- -- 63
2021-02-09 01:00:00 10.3 17 Oeste 30 Oeste 0 -- -- 58
2021-02-09 00:00:00 10.3 19 Oeste 34 Oeste 0 -- -- 59
2021-02-08 23:00:00 10.2 16 Oeste 30 Oeste 0 -- -- 61
2021-02-08 22:00:00 9.1 11 Oeste 20 Oeste 0 -- -- 70
2021-02-08 21:00:00 8.4 6 Noroeste 21 Oeste 0 -- -- 70
2021-02-08 20:00:00 9.6 12 Oeste 22 Oeste 0 -- -- 65
2021-02-08 19:00:00 10.8 18 Oeste 45 Noroeste 0 -- -- 59
2021-02-08 18:00:00 12.2 22 Oeste 44 Oeste 0 -- -- 54
2021-02-08 17:00:00 13.7 31 Noroeste 56 Oeste 0 -- -- 48
2021-02-08 16:00:00 13.9 32 Noroeste 55 Oeste 0 -- -- 47
2021-02-08 15:00:00 14.9 31 Oeste 48 Oeste 0 -- -- 44
2021-02-08 14:00:00 14.3 31 Noroeste 49 Noroeste 0 -- -- 43
2021-02-08 13:00:00 12.4 24 Noroeste 44 Noroeste 0 -- -- 49
2021-02-08 12:00:00 12.4 29 Noroeste 42 Noroeste 0 -- -- 51
2021-02-08 11:00:00 13.4 22 Noroeste 42 Oeste 0 -- -- 58
2021-02-08 10:00:00 10.5 5 Sur 16 Oeste 0 -- -- 74
2021-02-08 09:00:00 6.7 2 Este 7 Este 0 -- -- 81
2021-02-08 08:00:00 5.9 0 Calma 6 Este 0 -- -- 82
2021-02-08 07:00:00 5 4 Este 8 Nordeste 0 -- -- 85
2021-02-08 06:00:00 4.6 0 Calma 6 Noroeste 0 -- -- 84
2021-02-08 05:00:00 5.1 3 Noroeste 9 Norte 0 -- -- 80
2021-02-08 04:00:00 7.1 3 Oeste 17 Noroeste 0 -- -- 72
2021-02-08 03:00:00 8.4 9 Oeste 33 Oeste 0 -- -- 68
2021-02-08 02:00:00 8.9 20 Noroeste 35 Noroeste 0 -- -- 66
2021-02-08 01:00:00 9.3 17 Oeste 32 Noroeste 0 -- -- 65
2021-02-08 00:00:00 9.7 17 Oeste 28 Noroeste 0 -- -- 63
2021-02-07 23:00:00 9.8 8 Oeste 18 Oeste 0 -- -- 58
2021-02-07 22:00:00 9.3 8 Oeste 16 Oeste 0 -- -- 61
2021-02-07 21:00:00 9.7 10 Oeste 23 Sudoeste 0 -- -- 59
2021-02-07 20:00:00 10 9 Oeste 28 Noroeste 0 -- -- 58
2021-02-07 19:00:00 10.7 9 Noroeste 32 Oeste 0 -- -- 58
2021-02-07 18:00:00 12.3 17 Noroeste 31 Noroeste 0 -- -- 57
2021-02-07 17:00:00 11.9 14 Noroeste 28 Noroeste 0 -- -- 62
2021-02-07 16:00:00 12.7 14 Noroeste 31 Norte 0 -- -- 59
2021-02-07 15:00:00 12.1 13 Noroeste 29 Noroeste 0 -- -- 61
2021-02-07 14:00:00 12.1 14 Noroeste 30 Oeste 0 -- -- 60
2021-02-07 13:00:00 12.1 15 Noroeste 35 Noroeste 0 -- -- 59
2021-02-07 12:00:00 11.1 14 Noroeste 28 Noroeste 0 -- -- 65
2021-02-07 11:00:00 10.7 12 Noroeste 28 Noroeste 0 -- -- 70
2021-02-07 10:00:00 10.7 12 Noroeste 22 Oeste 0 -- -- 71
2021-02-07 09:00:00 9 5 Oeste 13 Oeste 0 -- -- 76
2021-02-07 08:00:00 8.3 9 Noroeste 13 Oeste 0 -- -- 79
2021-02-07 07:00:00 3.5 2 Oeste 5 Oeste 0 -- -- 95
2021-02-07 06:00:00 2.5 0 Calma 6 Norte 0 -- -- 93
2021-02-07 05:00:00 2.3 2 Norte 8 Norte 0 -- -- 91
2021-02-07 04:00:00 3.7 5 Norte 10 Norte 0 -- -- 90
2021-02-07 03:00:00 3 4 Noroeste 6 Noroeste 0 -- -- 91
2021-02-07 02:00:00 3.7 3 Nordeste 6 Oeste 0 -- -- 88
2021-02-07 01:00:00 4.4 2 Noroeste 8 Este 0 -- -- 85
2021-02-07 00:00:00 5.1 3 Norte 6 Nordeste 0 -- -- 80
2021-02-06 23:00:00 6.5 3 Noroeste 7 Nordeste 0 -- -- 77
2021-02-06 22:00:00 8.6 4 Oeste 13 Oeste 0 -- -- 68
2021-02-06 21:00:00 9.8 6 Noroeste 12 Norte 0 -- -- 63
2021-02-06 20:00:00 10.9 5 Noroeste 27 Noroeste 0 -- -- 59
2021-02-06 19:00:00 12.5 14 Noroeste 28 Norte 0 -- -- 53
2021-02-06 18:00:00 14.2 13 Noroeste 29 Noroeste 0 -- -- 46
2021-02-06 17:00:00 15.3 16 Noroeste 33 Noroeste 0 -- -- 42
2021-02-06 16:00:00 15.4 14 Oeste 30 Noroeste 0 -- -- 44
2021-02-06 15:00:00 16.2 18 Noroeste 29 Noroeste 0 -- -- 48
2021-02-06 14:00:00 16.8 17 Noroeste 26 Noroeste 0 -- -- 46
2021-02-06 13:00:00 15.6 14 Sudoeste 22 Sudoeste 0 -- -- 55
2021-02-06 12:00:00 14.4 13 Sudoeste 23 Sudoeste 0 -- -- 59
2021-02-06 11:00:00 11.6 0 Calma 6 Sur 0 -- -- 83
2021-02-06 10:00:00 7 2 Nordeste 6 Sudeste 0 -- -- 99
2021-02-06 09:00:00 5.6 0 Calma 3 Norte 0 -- -- 98
2021-02-06 08:00:00 4.6 0 Calma 4 Noroeste 0 -- -- 97
2021-02-06 07:00:00 5.2 4 Nordeste 6 Este 0 -- -- 95
2021-02-06 06:00:00 6.3 3 Nordeste 9 Norte 0 -- -- 95
2021-02-06 05:00:00 7.3 2 Norte 10 Sudeste 0 -- -- 94
2021-02-06 04:00:00 8 3 Oeste 14 Sudeste 0 -- -- 93
2021-02-06 03:00:00 8.2 5 Sudeste 10 Sudeste 0 -- -- 94
2021-02-06 02:00:00 8.3 3 Este 8 Este 0 -- -- 92
2021-02-06 01:00:00 9.2 2 Este 8 Noroeste 0 -- -- 88
2021-02-06 00:00:00 10.3 4 Sudoeste 27 Sudeste 0 -- -- 84
2021-02-05 23:00:00 10.2 15 Sudeste 25 Sudeste 0 -- -- 86
2021-02-05 22:00:00 10.1 4 Sudeste 22 Sudeste 0 -- -- 86
2021-02-05 21:00:00 10.1 10 Sudeste 23 Sudeste 0 -- -- 85
2021-02-05 20:00:00 10.2 12 Sudeste 23 Este 0 -- -- 84
2021-02-05 19:00:00 12 10 Este 25 Este 0 -- -- 75
2021-02-05 18:00:00 13.6 11 Este 26 Este 0 -- -- 71
2021-02-05 17:00:00 14.9 13 Este 29 Este 0 -- -- 66
2021-02-05 16:00:00 15.6 15 Este 30 Este 0 -- -- 64
2021-02-05 15:00:00 16.5 16 Este 26 Este 0 -- -- 60
2021-02-05 14:00:00 16 7 Sudoeste 22 Este 0 -- -- 64
2021-02-05 13:00:00 15.5 10 Sudeste 18 Este 0 -- -- 63
2021-02-05 12:00:00 13.6 4 Noroeste 9 Noroeste 0 -- -- 72
2021-02-05 11:00:00 10.8 3 Oeste 6 Sudeste 0 -- -- 83
2021-02-05 10:00:00 9.1 3 Sudeste 10 Sudeste 0 -- -- 92
2021-02-05 09:00:00 7.1 4 Sudeste 12 Sudeste 0 -- -- 97
2021-02-05 08:00:00 5.9 0 Calma 8 Sudeste 0 -- -- 95
2021-02-05 07:00:00 6.7 0 Calma 19 Sudeste 0 -- -- 94
2021-02-05 06:00:00 7.1 9 Sudeste 23 Sudeste 0 -- -- 95
2021-02-05 05:00:00 7.2 6 Sudeste 14 Este 0 -- -- 93
2021-02-05 04:00:00 7.9 6 Sudeste 18 Sudeste 0 -- -- 90
2021-02-05 03:00:00 8 5 Este 16 Sudeste 0 -- -- 90
2021-02-05 02:00:00 7.7 0 Calma 14 Sudeste 0 -- -- 86
2021-02-05 01:00:00 7.7 3 Este 8 Este 0 -- -- 90
2021-02-05 00:00:00 6.8 2 Norte 5 Noroeste 0 -- -- 87
2021-02-04 23:00:00 8.6 0 Calma 6 Norte 0 -- -- 81
2021-02-04 22:00:00 9 4 Noroeste 6 Noroeste 0 -- -- 81
2021-02-04 21:00:00 10.3 0 Calma 4 Noroeste 0 -- -- 79
2021-02-04 20:00:00 12.9 3 Sudoeste 10 Sudoeste 0 -- -- 72
2021-02-04 19:00:00 14.5 6 Sudoeste 10 Sudoeste 0 -- -- 65
2021-02-04 18:00:00 16.6 2 Norte 14 Sudoeste 0 -- -- 58
2021-02-04 17:00:00 18.1 2 Sur 14 Oeste 0 -- -- 50
2021-02-04 16:00:00 18.9 10 Sudoeste 18 Sudoeste 0 -- -- 47
2021-02-04 15:00:00 19.4 9 Sudoeste 18 Sudoeste 0 -- -- 45
2021-02-04 14:00:00 18 11 Sudoeste 16 Sudoeste 0 -- -- 52
2021-02-04 13:00:00 18 6 Sudoeste 13 Oeste 0 -- -- 52
2021-02-04 12:00:00 15.4 6 Sudeste 10 Sudeste 0 -- -- 58
2021-02-04 11:00:00 11.7 3 Noroeste 12 Este 0 -- -- 73
2021-02-04 10:00:00 8.4 0 Calma 5 Nordeste 0 -- -- 87
2021-02-04 09:00:00 6.3 3 Este 8 Nordeste 0 -- -- 92
2021-02-04 08:00:00 5.4 0 Calma 8 Norte 0 -- -- 92
2021-02-04 07:00:00 5.1 4 Norte 7 Norte 0 -- -- 91
2021-02-04 06:00:00 6.3 0 Calma 8 Norte 0 -- -- 88
2021-02-04 05:00:00 6.5 4 Norte 9 Nordeste 0 -- -- 87
2021-02-04 04:00:00 6.2 0 Calma 6 Norte 0 -- -- 87
2021-02-04 03:00:00 6.7 3 Norte 6 Norte 0 -- -- 84
2021-02-04 02:00:00 7.2 3 Norte 6 Norte 0 -- -- 83
2021-02-04 01:00:00 7.9 3 Norte 11 Norte 0 -- -- 81
2021-02-04 00:00:00 8.5 5 Norte 10 Norte 0 -- -- 77
2021-02-03 23:00:00 8.9 6 Norte 13 Norte 0 -- -- 77
2021-02-03 22:00:00 9.7 2 Norte 7 Noroeste 0 -- -- 72
2021-02-03 21:00:00 11.1 0 Calma 10 Norte 0 -- -- 68
2021-02-03 20:00:00 12.3 4 Norte 10 Norte 0 -- -- 64
2021-02-03 19:00:00 14 4 Norte 9 Noroeste 0 -- -- 58
2021-02-03 18:00:00 16.2 2 Noroeste 10 Norte 0 -- -- 51
2021-02-03 17:00:00 17.4 5 Norte 10 Nordeste 0 -- -- 46
2021-02-03 16:00:00 17.7 4 Norte 16 Noroeste 0 -- -- 44
2021-02-03 15:00:00 17.3 10 Noroeste 20 Norte 0 -- -- 46
2021-02-03 14:00:00 17.4 9 Norte 17 Norte 0 -- -- 46
2021-02-03 13:00:00 16.7 11 Norte 18 Noroeste 0 -- -- 49
2021-02-03 12:00:00 14.4 7 Norte 15 Norte 0 -- -- 59
2021-02-03 11:00:00 12.3 4 Este 8 Este 0 -- -- 68
2021-02-03 10:00:00 9.8 4 Este 6 Este 0 -- -- 80
2021-02-03 09:00:00 5 0 Calma 4 Este 0 -- -- 97
2021-02-03 08:00:00 4.3 3 Este 6 Norte 0 -- -- 92
2021-02-03 07:00:00 5 3 Nordeste 9 Nordeste 0 -- -- 90
2021-02-03 06:00:00 5.5 6 Este 9 Este 0 -- -- 92
2021-02-03 05:00:00 6.5 3 Este 6 Este 0 -- -- 87
2021-02-03 04:00:00 8.2 4 Norte 9 Norte 0 -- -- 86
2021-02-03 03:00:00 9.2 3 Norte 10 Norte 0 -- -- 83
2021-02-03 02:00:00 9.7 0 Calma 21 Noroeste 0 -- -- 82
2021-02-03 01:00:00 10.7 9 Norte 18 Norte 0 -- -- 80
2021-02-03 00:00:00 9.8 0 Calma 12 Noroeste 0 -- -- 79
2021-02-02 23:00:00 11 4 Norte 14 Norte 0 -- -- 76
2021-02-02 22:00:00 11.3 9 Norte 15 Norte 0 -- -- 77
2021-02-02 21:00:00 10.3 2 Nordeste 8 Norte 0 -- -- 76
2021-02-02 20:00:00 12.3 5 Norte 12 Norte 0 -- -- 69
2021-02-02 19:00:00 15.3 3 Noroeste 8 Noroeste 0 -- -- 58
2021-02-02 18:00:00 19.4 5 Norte 12 Nordeste 0 -- -- 48
2021-02-02 17:00:00 19.9 6 Norte 19 Norte 0 -- -- 48
2021-02-02 16:00:00 20.4 7 Norte 19 Norte 0 -- -- 47
2021-02-02 15:00:00 19.5 13 Norte 23 Norte 0 -- -- 48
2021-02-02 14:00:00 18.8 11 Norte 28 Oeste -- -- -- 49
2021-02-02 13:00:00 17.9 14 Norte 30 Norte -- -- -- 52
2021-02-02 12:00:00 16.6 15 Norte 25 Norte -- -- -- 59
2021-02-02 11:00:00 14.1 10 Noroeste -- -- -- -- -- 67
2021-02-02 10:00:00 12.3 12 Norte 24 Norte -- -- -- 73
2021-02-02 09:00:00 10.4 9 Norte 17 Noroeste -- -- -- 78
2021-02-02 08:00:00 8.9 9 Norte 18 Norte -- -- -- 82
2021-02-02 07:00:00 7.8 4 Norte 17 Norte -- -- -- 84
2021-02-02 06:00:00 7.7 5 Norte 11 Noroeste -- -- -- 84
2021-02-02 05:00:00 7 0 Calma 13 Norte -- -- -- 85
2021-02-02 04:00:00 6.5 4 Noroeste 13 Noroeste -- -- -- 84
2021-02-02 03:00:00 7.4 10 Oeste 14 Oeste -- -- -- 84
2021-02-02 02:00:00 5.6 8 Noroeste 16 Noroeste -- -- -- 88
2021-02-02 01:00:00 6.1 4 Norte 6 Norte -- -- -- 84
2021-02-02 00:00:00 7.7 3 Noroeste 5 Oeste 0 -- -- 80
2021-02-01 23:00:00 8.5 2 Noroeste 6 Noroeste 0 -- -- 76
2021-02-01 22:00:00 10.7 2 Nordeste 8 Sur 0 -- -- 71
2021-02-01 21:00:00 12.8 4 Sur 24 Noroeste 0 -- -- 64
2021-02-01 20:00:00 13.9 15 Noroeste 28 Noroeste 0 -- -- 60
2021-02-01 19:00:00 15.5 12 Noroeste 34 Noroeste 0 -- -- 55
2021-02-01 18:00:00 18.1 19 Noroeste 36 Oeste 0 -- -- 46
2021-02-01 17:00:00 19.7 23 Noroeste 54 Noroeste 0 -- -- 42
2021-02-01 16:00:00 20.5 24 Noroeste 49 Noroeste 0 -- -- 38
2021-02-01 15:00:00 20.1 27 Noroeste 57 Noroeste 0 -- -- 40
2021-02-01 14:00:00 20.2 30 Noroeste 56 Noroeste 0 -- -- 38
2021-02-01 13:00:00 19.7 37 Noroeste 64 Noroeste 0 -- -- 38
2021-02-01 12:00:00 19.1 36 Noroeste 59 Noroeste 0 -- -- 40
2021-02-01 11:00:00 17.6 31 Noroeste 63 Noroeste 0 -- -- 45
2021-02-01 10:00:00 15.8 24 Noroeste 47 Noroeste 0 -- -- 49
2021-02-01 09:00:00 13.2 17 Noroeste 32 Noroeste 0 -- -- 58
2021-02-01 08:00:00 13.2 19 Noroeste 37 Noroeste 0 -- -- 58
2021-02-01 07:00:00 13.2 17 Noroeste 50 Noroeste 0 -- -- 59
2021-02-01 06:00:00 13.7 26 Noroeste 56 Noroeste 0 -- -- 59
2021-02-01 05:00:00 14 27 Noroeste 55 Oeste 0 -- -- 59
2021-02-01 04:00:00 13.9 26 Noroeste 43 Noroeste 0 -- -- 59
2021-02-01 03:00:00 14.3 29 Noroeste 51 Noroeste 0 -- -- 61
2021-02-01 02:00:00 14.7 28 Noroeste 59 Noroeste 0 -- -- 63
2021-02-01 01:00:00 14.6 29 Noroeste 54 Noroeste 0 -- -- 66
2021-02-01 00:00:00 14.6 28 Noroeste 50 Noroeste 0 -- -- 66
2021-01-31 23:00:00 13.7 9 Noroeste 36 Oeste 0 -- -- 67
2021-01-31 22:00:00 14 21 Oeste 42 Noroeste 0 -- -- 67
2021-01-31 21:00:00 12.5 6 Oeste 18 Sudoeste 0 -- -- 71
2021-01-31 20:00:00 12.9 8 Sudoeste 27 Sudoeste 0 -- -- 68
2021-01-31 19:00:00 13.6 13 Oeste 29 Oeste 0 -- -- 64
2021-01-31 18:00:00 15.1 15 Oeste 37 Oeste 0 -- -- 59
2021-01-31 17:00:00 15.4 28 Oeste 41 Oeste 0 -- -- 57
2021-01-31 16:00:00 15.5 19 Oeste 35 Oeste 0 -- -- 57
2021-01-31 15:00:00 16.1 19 Oeste 47 Noroeste 0 -- -- 56
2021-01-31 14:00:00 16.2 25 Oeste 53 Noroeste 0 -- -- 53
2021-01-31 13:00:00 16.5 27 Noroeste 60 Noroeste 0 -- -- 51
2021-01-31 12:00:00 15.6 28 Noroeste 48 Noroeste 0 -- -- 51
2021-01-31 11:00:00 13.8 28 Noroeste 48 Oeste 0 -- -- 51
2021-01-31 10:00:00 11.9 16 Noroeste 31 Norte 0 -- -- 57
2021-01-31 09:00:00 9.5 13 Noroeste 26 Oeste 0 -- -- 61
2021-01-31 08:00:00 9.2 14 Noroeste 40 Noroeste 0 -- -- 62
2021-01-31 07:00:00 9.1 17 Noroeste 36 Noroeste 0 -- -- 64
2021-01-31 06:00:00 9.6 22 Noroeste 38 Noroeste 0 -- -- 63
2021-01-31 05:00:00 9.9 13 Noroeste 48 Noroeste 0 -- -- 60
2021-01-31 04:00:00 10.2 21 Noroeste 40 Noroeste 0 -- -- 58
2021-01-31 03:00:00 10.4 18 Noroeste 51 Noroeste 0 -- -- 56
2021-01-31 02:00:00 11 26 Oeste 56 Noroeste 0 -- -- 53
2021-01-31 01:00:00 11.4 23 Noroeste 55 Noroeste 0 -- -- 51
2021-01-31 00:00:00 11.6 28 Noroeste 49 Noroeste 0 -- -- 51
2021-01-30 23:00:00 12 28 Noroeste 50 Noroeste 0 -- -- 52
2021-01-30 22:00:00 12.4 30 Noroeste 58 Noroeste 0 -- -- 51
2021-01-30 21:00:00 12.2 21 Noroeste 45 Noroeste 0 -- -- 51
2021-01-30 20:00:00 12.4 21 Noroeste 45 Noroeste 0 -- -- 47
2021-01-30 19:00:00 13.2 28 Noroeste 51 Noroeste 0 -- -- 43
2021-01-30 18:00:00 14.7 27 Noroeste 62 Noroeste 0 -- -- 41
2021-01-30 17:00:00 16.1 38 Noroeste 68 Noroeste 0 -- -- 38
2021-01-30 16:00:00 16.9 36 Noroeste 60 Noroeste 0 -- -- 40
2021-01-30 15:00:00 17.9 35 Oeste 57 Oeste 0 -- -- 37
2021-01-30 14:00:00 17.1 36 Noroeste 59 Noroeste 0 -- -- 45
2021-01-30 13:00:00 16.4 37 Oeste 61 Noroeste 0 -- -- 49
2021-01-30 12:00:00 16.4 29 Oeste 53 Oeste 0 -- -- 53
2021-01-30 11:00:00 15.2 26 Oeste 44 Oeste 0 -- -- 60
2021-01-30 10:00:00 13.8 23 Oeste 39 Oeste 0 -- -- 65
2021-01-30 09:00:00 12.4 14 Noroeste 28 Noroeste 0 -- -- 66
2021-01-30 08:00:00 10.6 7 Norte 21 Nordeste 0 -- -- 74
2021-01-30 07:00:00 7.4 0 Calma 9 Nordeste 0 -- -- 79
2021-01-30 06:00:00 8.3 4 Norte 15 Norte 0 -- -- 76
2021-01-30 05:00:00 8.8 6 Norte 11 Norte 0 -- -- 75
2021-01-30 04:00:00 9.2 6 Norte 12 Norte 0 -- -- 71
2021-01-30 03:00:00 8.9 2 Noroeste 15 Norte 0 -- -- 71
2021-01-30 02:00:00 8.5 0 Calma 9 Norte 0 -- -- 70
2021-01-30 01:00:00 9.4 4 Noroeste 9 Norte 0 -- -- 68
2021-01-30 00:00:00 10.3 4 Norte 10 Noroeste 0 -- -- 64